Terminal Aerodrome Forecast
Issued by NWS Charleston, WV

Current Version | Previous Version | Graphics & Text | Print | Product List | Glossary On
Versions: 1 2 3 4 5 6 7 8 9 10 11 12 13 14 15 16 17 18 19 20 21
000
FTUS41 KRLX 240500
TAFEKN
TAF
KEKN 240538Z 2406/2506 21009KT 6SM -RA BR BKN035 OVC050
     FM240900 20012G23KT 6SM BR FEW015 BKN035
     FM241200 19010G17KT P6SM SCT030
     FM241400 20013G21KT P6SM SCT100
     FM241700 21017G31KT P6SM SCT090=

USA.gov is the U.S. government's official web portal to all federal, state and local government web resources and services.